Allisonia, Virginia
Current Conditions -  °F | °C
As of 12:55 PM on Tuesday 21 Oct 2014 (Local Time) from KPSK Reporting Station
Overcast Overcast  
Wind Chill: 14°   Ceiling: 3500
Heat Index: 14°   Visibility: 10mi
Dew Point:   Wind: 10mph
Humidity: 70%   Direction: 280°W
Pressure: 29.94"   Gusts: NA
Location:  36.9752°N, 80.6434°W
Report Text: KPSK 211655Z AUTO 28009KT 10SM BKN035 BKN041 OVC050 14/09 A2994 RMK AO2 T01410086
Loading
Personal Weather Stations






























Interactive Weather Map
Tropical Storm Tracking
New forecast layout! Learn more

10-Day Weather Forecast

Advertisements
Track Severe Weather on mobile